sensor_id;sensor_type;location;lat;lon;timestamp;temperature;humidity
13332;DHT22;6735;51.456;12.626;2023-08-21T00:00:03;21.40;78.80
13332;DHT22;6735;51.456;12.626;2023-08-21T00:02:29;21.40;78.80
13332;DHT22;6735;51.456;12.626;2023-08-21T00:04:55;21.30;78.80
13332;DHT22;6735;51.456;12.626;2023-08-21T00:07:20;21.30;78.80
13332;DHT22;6735;51.456;12.626;2023-08-21T00:09:46;21.30;78.70
13332;DHT22;6735;51.456;12.626;2023-08-21T00:12:11;21.30;78.80
13332;DHT22;6735;51.456;12.626;2023-08-21T00:14:37;21.20;78.90
13332;DHT22;6735;51.456;12.626;2023-08-21T00:17:03;21.20;79.00
13332;DHT22;6735;51.456;12.626;2023-08-21T00:19:29;21.20;79.10
13332;DHT22;6735;51.456;12.626;2023-08-21T00:21:54;21.20;79.10
13332;DHT22;6735;51.456;12.626;2023-08-21T00:24:20;21.20;79.20
13332;DHT22;6735;51.456;12.626;2023-08-21T00:26:45;21.10;79.20
13332;DHT22;6735;51.456;12.626;2023-08-21T00:29:11;21.10;79.30
13332;DHT22;6735;51.456;12.626;2023-08-21T00:31:36;21.00;79.30
13332;DHT22;6735;51.456;12.626;2023-08-21T00:34:02;21.00;79.30
13332;DHT22;6735;51.456;12.626;2023-08-21T00:36:27;21.00;79.40
13332;DHT22;6735;51.456;12.626;2023-08-21T00:38:53;20.90;79.40
13332;DHT22;6735;51.456;12.626;2023-08-21T00:41:18;20.90;79.50
13332;DHT22;6735;51.456;12.626;2023-08-21T00:43:44;20.90;79.40
13332;DHT22;6735;51.456;12.626;2023-08-21T00:46:10;20.80;79.50
13332;DHT22;6735;51.456;12.626;2023-08-21T00:48:36;20.80;79.50
13332;DHT22;6735;51.456;12.626;2023-08-21T00:51:02;20.80;79.60
13332;DHT22;6735;51.456;12.626;2023-08-21T00:53:28;20.80;79.80
13332;DHT22;6735;51.456;12.626;2023-08-21T00:55:54;20.80;79.90
13332;DHT22;6735;51.456;12.626;2023-08-21T00:58:20;20.80;80.40
13332;DHT22;6735;51.456;12.626;2023-08-21T01:00:46;20.80;80.40
13332;DHT22;6735;51.456;12.626;2023-08-21T01:03:14;20.80;80.60
13332;DHT22;6735;51.456;12.626;2023-08-21T01:05:40;20.70;80.70
13332;DHT22;6735;51.456;12.626;2023-08-21T01:08:10;20.70;80.80
13332;DHT22;6735;51.456;12.626;2023-08-21T01:13:27;20.70;80.90
13332;DHT22;6735;51.456;12.626;2023-08-21T01:15:55;20.70;81.10
13332;DHT22;6735;51.456;12.626;2023-08-21T01:18:22;20.70;81.20
13332;DHT22;6735;51.456;12.626;2023-08-21T01:20:48;20.70;81.20
13332;DHT22;6735;51.456;12.626;2023-08-21T01:23:33;20.60;81.10
13332;DHT22;6735;51.456;12.626;2023-08-21T01:25:59;20.60;81.30
13332;DHT22;6735;51.456;12.626;2023-08-21T01:28:25;20.60;81.40
13332;DHT22;6735;51.456;12.626;2023-08-21T01:33:46;20.60;81.50
13332;DHT22;6735;51.456;12.626;2023-08-21T01:36:14;20.50;81.50
13332;DHT22;6735;51.456;12.626;2023-08-21T01:38:40;20.50;81.60
13332;DHT22;6735;51.456;12.626;2023-08-21T01:41:06;20.50;81.70
13332;DHT22;6735;51.456;12.626;2023-08-21T01:43:31;20.40;81.80
13332;DHT22;6735;51.456;12.626;2023-08-21T01:45:57;20.40;81.80
13332;DHT22;6735;51.456;12.626;2023-08-21T01:48:23;20.40;81.90
13332;DHT22;6735;51.456;12.626;2023-08-21T01:50:48;20.40;81.90
13332;DHT22;6735;51.456;12.626;2023-08-21T01:53:14;20.40;82.10
13332;DHT22;6735;51.456;12.626;2023-08-21T01:55:39;20.30;82.20
13332;DHT22;6735;51.456;12.626;2023-08-21T01:58:05;20.40;82.20
13332;DHT22;6735;51.456;12.626;2023-08-21T02:00:30;20.40;82.40
13332;DHT22;6735;51.456;12.626;2023-08-21T02:02:56;20.30;82.40
13332;DHT22;6735;51.456;12.626;2023-08-21T02:05:22;20.30;82.50
13332;DHT22;6735;51.456;12.626;2023-08-21T02:07:47;20.20;82.70
13332;DHT22;6735;51.456;12.626;2023-08-21T02:10:13;20.20;82.70
13332;DHT22;6735;51.456;12.626;2023-08-21T02:12:39;20.20;82.80
13332;DHT22;6735;51.456;12.626;2023-08-21T02:15:05;20.20;82.90
13332;DHT22;6735;51.456;12.626;2023-08-21T02:17:30;20.10;82.80
13332;DHT22;6735;51.456;12.626;2023-08-21T02:19:56;20.10;82.90
13332;DHT22;6735;51.456;12.626;2023-08-21T02:22:22;20.10;83.00
13332;DHT22;6735;51.456;12.626;2023-08-21T02:24:47;20.10;82.90
13332;DHT22;6735;51.456;12.626;2023-08-21T02:27:13;20.10;83.00
13332;DHT22;6735;51.456;12.626;2023-08-21T02:29:38;20.10;83.00
13332;DHT22;6735;51.456;12.626;2023-08-21T02:32:04;20.10;83.10
13332;DHT22;6735;51.456;12.626;2023-08-21T02:34:29;20.10;83.10
13332;DHT22;6735;51.456;12.626;2023-08-21T02:36:55;20.10;83.10
13332;DHT22;6735;51.456;12.626;2023-08-21T02:39:21;20.00;83.20
13332;DHT22;6735;51.456;12.626;2023-08-21T02:41:46;20.00;83.30
13332;DHT22;6735;51.456;12.626;2023-08-21T02:44:11;20.00;83.60
13332;DHT22;6735;51.456;12.626;2023-08-21T02:46:37;19.90;83.70
13332;DHT22;6735;51.456;12.626;2023-08-21T02:49:03;20.00;83.80
13332;DHT22;6735;51.456;12.626;2023-08-21T02:51:28;19.90;83.80
13332;DHT22;6735;51.456;12.626;2023-08-21T02:53:53;19.90;83.80
13332;DHT22;6735;51.456;12.626;2023-08-21T02:56:19;19.90;83.80
13332;DHT22;6735;51.456;12.626;2023-08-21T02:58:45;19.90;83.80
13332;DHT22;6735;51.456;12.626;2023-08-21T03:01:10;19.90;83.80
13332;DHT22;6735;51.456;12.626;2023-08-21T03:03:37;19.90;83.90
13332;DHT22;6735;51.456;12.626;2023-08-21T03:06:02;19.90;84.00
13332;DHT22;6735;51.456;12.626;2023-08-21T03:08:28;19.90;84.00
13332;DHT22;6735;51.456;12.626;2023-08-21T03:10:53;19.90;84.20
13332;DHT22;6735;51.456;12.626;2023-08-21T03:13:19;19.90;84.10
13332;DHT22;6735;51.456;12.626;2023-08-21T03:15:45;19.80;84.40
13332;DHT22;6735;51.456;12.626;2023-08-21T03:18:10;19.80;84.60
13332;DHT22;6735;51.456;12.626;2023-08-21T03:20:36;19.80;84.60
13332;DHT22;6735;51.456;12.626;2023-08-21T03:23:01;19.80;84.60
13332;DHT22;6735;51.456;12.626;2023-08-21T03:25:28;19.80;84.70
13332;DHT22;6735;51.456;12.626;2023-08-21T03:27:53;19.90;84.60
13332;DHT22;6735;51.456;12.626;2023-08-21T03:30:19;19.90;84.60
13332;DHT22;6735;51.456;12.626;2023-08-21T03:32:44;19.80;84.60
13332;DHT22;6735;51.456;12.626;2023-08-21T03:35:10;19.90;84.60
13332;DHT22;6735;51.456;12.626;2023-08-21T03:37:36;19.90;84.60
13332;DHT22;6735;51.456;12.626;2023-08-21T03:40:03;19.90;84.60
13332;DHT22;6735;51.456;12.626;2023-08-21T03:42:29;19.90;84.60
13332;DHT22;6735;51.456;12.626;2023-08-21T03:44:54;19.90;84.60
13332;DHT22;6735;51.456;12.626;2023-08-21T03:47:20;19.90;84.60
13332;DHT22;6735;51.456;12.626;2023-08-21T03:49:45;20.00;84.50
13332;DHT22;6735;51.456;12.626;2023-08-21T03:52:13;20.00;84.30
13332;DHT22;6735;51.456;12.626;2023-08-21T03:54:39;20.00;84.20
13332;DHT22;6735;51.456;12.626;2023-08-21T03:57:04;20.00;84.20
13332;DHT22;6735;51.456;12.626;2023-08-21T03:59:30;20.10;84.10
13332;DHT22;6735;51.456;12.626;2023-08-21T04:01:56;20.00;83.80
13332;DHT22;6735;51.456;12.626;2023-08-21T04:04:21;20.00;83.80
13332;DHT22;6735;51.456;12.626;2023-08-21T04:06:47;20.00;83.80
13332;DHT22;6735;51.456;12.626;2023-08-21T04:09:12;20.00;83.90
13332;DHT22;6735;51.456;12.626;2023-08-21T04:11:37;20.10;83.90
13332;DHT22;6735;51.456;12.626;2023-08-21T04:14:04;20.10;83.80
13332;DHT22;6735;51.456;12.626;2023-08-21T04:16:29;20.00;83.80
13332;DHT22;6735;51.456;12.626;2023-08-21T04:18:56;20.10;83.80
13332;DHT22;6735;51.456;12.626;2023-08-21T04:21:22;20.10;83.90
13332;DHT22;6735;51.456;12.626;2023-08-21T04:23:47;20.10;83.90
13332;DHT22;6735;51.456;12.626;2023-08-21T04:26:13;20.10;83.80
13332;DHT22;6735;51.456;12.626;2023-08-21T04:28:38;20.10;83.80
13332;DHT22;6735;51.456;12.626;2023-08-21T04:31:05;20.20;83.80
13332;DHT22;6735;51.456;12.626;2023-08-21T04:33:32;20.30;83.60
13332;DHT22;6735;51.456;12.626;2023-08-21T04:35:58;20.40;83.40
13332;DHT22;6735;51.456;12.626;2023-08-21T04:38:24;20.50;83.20
13332;DHT22;6735;51.456;12.626;2023-08-21T04:40:50;20.50;83.10
13332;DHT22;6735;51.456;12.626;2023-08-21T04:43:16;20.60;82.80
13332;DHT22;6735;51.456;12.626;2023-08-21T04:45:51;20.70;82.60
13332;DHT22;6735;51.456;12.626;2023-08-21T04:48:20;20.70;82.40
13332;DHT22;6735;51.456;12.626;2023-08-21T04:50:46;20.80;82.30
13332;DHT22;6735;51.456;12.626;2023-08-21T04:53:12;20.80;82.10
13332;DHT22;6735;51.456;12.626;2023-08-21T04:55:37;20.80;82.00
13332;DHT22;6735;51.456;12.626;2023-08-21T04:58:06;20.80;81.80
13332;DHT22;6735;51.456;12.626;2023-08-21T05:00:31;20.90;81.70
13332;DHT22;6735;51.456;12.626;2023-08-21T05:02:57;20.90;81.70
13332;DHT22;6735;51.456;12.626;2023-08-21T05:05:22;20.90;81.60
13332;DHT22;6735;51.456;12.626;2023-08-21T05:07:48;21.00;81.50
13332;DHT22;6735;51.456;12.626;2023-08-21T05:10:13;21.00;81.50
13332;DHT22;6735;51.456;12.626;2023-08-21T05:12:39;21.10;81.40
13332;DHT22;6735;51.456;12.626;2023-08-21T05:15:05;21.10;81.30
13332;DHT22;6735;51.456;12.626;2023-08-21T05:17:30;21.10;81.20
13332;DHT22;6735;51.456;12.626;2023-08-21T05:19:56;21.20;81.00
13332;DHT22;6735;51.456;12.626;2023-08-21T05:22:21;21.20;80.80
13332;DHT22;6735;51.456;12.626;2023-08-21T05:24:47;21.30;80.80
13332;DHT22;6735;51.456;12.626;2023-08-21T05:27:13;21.40;80.60
13332;DHT22;6735;51.456;12.626;2023-08-21T05:29:38;21.40;80.40
13332;DHT22;6735;51.456;12.626;2023-08-21T05:32:04;21.50;80.10
13332;DHT22;6735;51.456;12.626;2023-08-21T05:34:30;22.20;79.00
13332;DHT22;6735;51.456;12.626;2023-08-21T05:36:55;23.40;76.40
13332;DHT22;6735;51.456;12.626;2023-08-21T05:39:21;24.50;73.40
13332;DHT22;6735;51.456;12.626;2023-08-21T05:41:46;25.00;71.40
13332;DHT22;6735;51.456;12.626;2023-08-21T05:44:12;24.90;71.00
13332;DHT22;6735;51.456;12.626;2023-08-21T05:46:37;24.50;71.20
13332;DHT22;6735;51.456;12.626;2023-08-21T05:49:03;24.10;72.60
13332;DHT22;6735;51.456;12.626;2023-08-21T05:51:29;23.80;73.10
13332;DHT22;6735;51.456;12.626;2023-08-21T05:53:55;23.50;73.40
13332;DHT22;6735;51.456;12.626;2023-08-21T05:56:21;23.30;73.80
13332;DHT22;6735;51.456;12.626;2023-08-21T05:58:47;23.20;74.00
13332;DHT22;6735;51.456;12.626;2023-08-21T06:01:12;23.10;74.30
13332;DHT22;6735;51.456;12.626;2023-08-21T06:03:38;23.00;74.50
13332;DHT22;6735;51.456;12.626;2023-08-21T06:06:03;23.40;73.90
13332;DHT22;6735;51.456;12.626;2023-08-21T06:08:29;23.80;72.80
13332;DHT22;6735;51.456;12.626;2023-08-21T06:10:54;24.40;71.50
13332;DHT22;6735;51.456;12.626;2023-08-21T06:13:20;24.70;70.50
13332;DHT22;6735;51.456;12.626;2023-08-21T06:15:45;24.50;70.80
13332;DHT22;6735;51.456;12.626;2023-08-21T06:18:11;24.30;71.10
13332;DHT22;6735;51.456;12.626;2023-08-21T06:20:37;24.20;71.30
13332;DHT22;6735;51.456;12.626;2023-08-21T06:23:02;24.30;70.80
13332;DHT22;6735;51.456;12.626;2023-08-21T06:25:28;25.10;69.20
13332;DHT22;6735;51.456;12.626;2023-08-21T06:27:56;25.70;67.40
13332;DHT22;6735;51.456;12.626;2023-08-21T06:30:21;25.70;67.40
13332;DHT22;6735;51.456;12.626;2023-08-21T06:32:47;25.50;67.70
13332;DHT22;6735;51.456;12.626;2023-08-21T06:35:12;25.30;67.70
13332;DHT22;6735;51.456;12.626;2023-08-21T06:37:39;25.40;67.70
13332;DHT22;6735;51.456;12.626;2023-08-21T06:40:05;25.70;66.70
13332;DHT22;6735;51.456;12.626;2023-08-21T06:42:32;26.20;65.40
13332;DHT22;6735;51.456;12.626;2023-08-21T06:44:57;27.20;63.40
13332;DHT22;6735;51.456;12.626;2023-08-21T06:47:23;28.10;61.30
13332;DHT22;6735;51.456;12.626;2023-08-21T06:49:49;27.90;61.80
13332;DHT22;6735;51.456;12.626;2023-08-21T06:52:14;27.70;61.30
13332;DHT22;6735;51.456;12.626;2023-08-21T06:54:40;27.60;61.90
13332;DHT22;6735;51.456;12.626;2023-08-21T06:57:05;27.50;62.00
13332;DHT22;6735;51.456;12.626;2023-08-21T06:59:31;27.20;61.90
13332;DHT22;6735;51.456;12.626;2023-08-21T07:02:01;26.90;62.40
13332;DHT22;6735;51.456;12.626;2023-08-21T07:04:27;26.70;62.70
13332;DHT22;6735;51.456;12.626;2023-08-21T07:06:53;26.50;62.70
13332;DHT22;6735;51.456;12.626;2023-08-21T07:09:18;26.30;62.90
13332;DHT22;6735;51.456;12.626;2023-08-21T07:11:44;26.20;63.10
13332;DHT22;6735;51.456;12.626;2023-08-21T07:14:09;26.10;63.20
13332;DHT22;6735;51.456;12.626;2023-08-21T07:16:35;26.00;63.30
13332;DHT22;6735;51.456;12.626;2023-08-21T07:19:00;25.90;63.30
13332;DHT22;6735;51.456;12.626;2023-08-21T07:21:26;25.90;63.40
13332;DHT22;6735;51.456;12.626;2023-08-21T07:23:51;25.90;63.40
13332;DHT22;6735;51.456;12.626;2023-08-21T07:26:17;25.90;63.40
13332;DHT22;6735;51.456;12.626;2023-08-21T07:28:42;25.80;63.40
13332;DHT22;6735;51.456;12.626;2023-08-21T07:31:08;25.90;63.50
13332;DHT22;6735;51.456;12.626;2023-08-21T07:33:33;25.80;63.90
13332;DHT22;6735;51.456;12.626;2023-08-21T07:36:04;25.70;64.00
13332;DHT22;6735;51.456;12.626;2023-08-21T07:38:30;25.70;64.30
13332;DHT22;6735;51.456;12.626;2023-08-21T07:41:06;25.60;64.60
13332;DHT22;6735;51.456;12.626;2023-08-21T07:43:33;25.50;65.00
13332;DHT22;6735;51.456;12.626;2023-08-21T07:46:03;25.40;65.20
13332;DHT22;6735;51.456;12.626;2023-08-21T07:48:29;25.30;65.70
13332;DHT22;6735;51.456;12.626;2023-08-21T07:50:55;25.20;66.00
13332;DHT22;6735;51.456;12.626;2023-08-21T07:53:20;25.20;66.60
13332;DHT22;6735;51.456;12.626;2023-08-21T07:55:46;25.10;67.00
13332;DHT22;6735;51.456;12.626;2023-08-21T07:58:11;25.00;67.40
13332;DHT22;6735;51.456;12.626;2023-08-21T08:00:38;24.80;68.20
13332;DHT22;6735;51.456;12.626;2023-08-21T08:03:04;24.70;68.80
13332;DHT22;6735;51.456;12.626;2023-08-21T08:05:31;24.60;69.70
13332;DHT22;6735;51.456;12.626;2023-08-21T08:07:56;24.40;70.90
13332;DHT22;6735;51.456;12.626;2023-08-21T08:10:22;24.30;71.50
13332;DHT22;6735;51.456;12.626;2023-08-21T08:12:47;24.30;72.40
13332;DHT22;6735;51.456;12.626;2023-08-21T08:15:13;24.20;73.00
13332;DHT22;6735;51.456;12.626;2023-08-21T08:17:38;24.20;73.40
13332;DHT22;6735;51.456;12.626;2023-08-21T08:20:04;24.10;74.20
13332;DHT22;6735;51.456;12.626;2023-08-21T08:22:31;24.10;74.40
13332;DHT22;6735;51.456;12.626;2023-08-21T08:24:57;24.10;74.60
13332;DHT22;6735;51.456;12.626;2023-08-21T08:27:22;24.10;74.70
13332;DHT22;6735;51.456;12.626;2023-08-21T08:29:49;24.10;75.00
13332;DHT22;6735;51.456;12.626;2023-08-21T08:32:14;24.00;75.60
13332;DHT22;6735;51.456;12.626;2023-08-21T08:34:40;24.10;75.70
13332;DHT22;6735;51.456;12.626;2023-08-21T08:37:05;24.10;76.30
13332;DHT22;6735;51.456;12.626;2023-08-21T08:39:31;24.20;76.20
13332;DHT22;6735;51.456;12.626;2023-08-21T08:42:02;24.20;75.80
13332;DHT22;6735;51.456;12.626;2023-08-21T08:44:29;24.30;75.50
13332;DHT22;6735;51.456;12.626;2023-08-21T08:46:56;24.50;75.10
13332;DHT22;6735;51.456;12.626;2023-08-21T08:49:22;24.90;74.40
13332;DHT22;6735;51.456;12.626;2023-08-21T08:51:50;25.30;73.60
13332;DHT22;6735;51.456;12.626;2023-08-21T08:54:17;25.60;72.90
13332;DHT22;6735;51.456;12.626;2023-08-21T08:56:43;25.60;72.20
13332;DHT22;6735;51.456;12.626;2023-08-21T08:59:09;25.90;71.30
13332;DHT22;6735;51.456;12.626;2023-08-21T09:01:34;26.20;70.80
13332;DHT22;6735;51.456;12.626;2023-08-21T09:04:01;26.40;69.70
13332;DHT22;6735;51.456;12.626;2023-08-21T09:06:26;26.30;69.30
13332;DHT22;6735;51.456;12.626;2023-08-21T09:08:56;26.30;69.00
13332;DHT22;6735;51.456;12.626;2023-08-21T09:11:23;26.40;68.90
13332;DHT22;6735;51.456;12.626;2023-08-21T09:13:50;26.40;68.60
13332;DHT22;6735;51.456;12.626;2023-08-21T09:16:21;26.40;68.50
13332;DHT22;6735;51.456;12.626;2023-08-21T09:18:56;26.70;67.80
13332;DHT22;6735;51.456;12.626;2023-08-21T09:21:23;27.00;66.50
13332;DHT22;6735;51.456;12.626;2023-08-21T09:24:00;27.20;66.70
13332;DHT22;6735;51.456;12.626;2023-08-21T09:26:33;27.20;65.50
13332;DHT22;6735;51.456;12.626;2023-08-21T09:28:59;27.20;65.70
13332;DHT22;6735;51.456;12.626;2023-08-21T09:31:31;27.40;64.90
13332;DHT22;6735;51.456;12.626;2023-08-21T09:34:01;27.80;62.30
13332;DHT22;6735;51.456;12.626;2023-08-21T09:36:30;28.10;61.60
13332;DHT22;6735;51.456;12.626;2023-08-21T09:38:56;28.20;61.70
13332;DHT22;6735;51.456;12.626;2023-08-21T09:41:23;28.00;60.70
13332;DHT22;6735;51.456;12.626;2023-08-21T09:43:49;28.20;60.60
13332;DHT22;6735;51.456;12.626;2023-08-21T09:46:24;28.20;60.00
13332;DHT22;6735;51.456;12.626;2023-08-21T09:48:51;28.40;56.70
13332;DHT22;6735;51.456;12.626;2023-08-21T09:51:17;28.50;56.70
13332;DHT22;6735;51.456;12.626;2023-08-21T09:53:44;28.40;55.60
13332;DHT22;6735;51.456;12.626;2023-08-21T09:56:10;28.20;56.30
13332;DHT22;6735;51.456;12.626;2023-08-21T09:58:36;28.20;55.50
13332;DHT22;6735;51.456;12.626;2023-08-21T10:01:05;28.20;55.20
13332;DHT22;6735;51.456;12.626;2023-08-21T10:03:40;28.30;54.40
13332;DHT22;6735;51.456;12.626;2023-08-21T10:06:07;28.70;53.20
13332;DHT22;6735;51.456;12.626;2023-08-21T10:08:37;28.90;52.30
13332;DHT22;6735;51.456;12.626;2023-08-21T10:11:06;28.90;52.00
13332;DHT22;6735;51.456;12.626;2023-08-21T10:13:33;28.90;51.70
13332;DHT22;6735;51.456;12.626;2023-08-21T10:15:59;29.30;50.10
13332;DHT22;6735;51.456;12.626;2023-08-21T10:18:31;29.60;50.20
13332;DHT22;6735;51.456;12.626;2023-08-21T10:21:14;30.00;47.50
13332;DHT22;6735;51.456;12.626;2023-08-21T10:23:40;30.00;44.80
13332;DHT22;6735;51.456;12.626;2023-08-21T10:26:07;30.20;47.90
13332;DHT22;6735;51.456;12.626;2023-08-21T10:31:34;30.00;45.50
13332;DHT22;6735;51.456;12.626;2023-08-21T10:34:04;30.20;43.70
13332;DHT22;6735;51.456;12.626;2023-08-21T10:39:19;30.50;42.20
13332;DHT22;6735;51.456;12.626;2023-08-21T10:42:02;30.70;43.20
13332;DHT22;6735;51.456;12.626;2023-08-21T10:49:58;30.80;43.30
13332;DHT22;6735;51.456;12.626;2023-08-21T10:52:29;30.90;42.10
13332;DHT22;6735;51.456;12.626;2023-08-21T10:54:59;31.00;41.30
13332;DHT22;6735;51.456;12.626;2023-08-21T10:57:26;30.90;40.80
13332;DHT22;6735;51.456;12.626;2023-08-21T11:02:33;30.90;40.00
13332;DHT22;6735;51.456;12.626;2023-08-21T11:04:59;31.20;40.80
13332;DHT22;6735;51.456;12.626;2023-08-21T11:07:26;31.50;40.70
13332;DHT22;6735;51.456;12.626;2023-08-21T11:09:52;31.70;40.50
13332;DHT22;6735;51.456;12.626;2023-08-21T11:12:20;31.40;40.70
13332;DHT22;6735;51.456;12.626;2023-08-21T11:14:47;31.40;40.60
13332;DHT22;6735;51.456;12.626;2023-08-21T11:17:12;31.40;40.80
13332;DHT22;6735;51.456;12.626;2023-08-21T11:19:39;31.40;40.60
13332;DHT22;6735;51.456;12.626;2023-08-21T11:22:05;31.10;41.20
13332;DHT22;6735;51.456;12.626;2023-08-21T11:27:05;31.60;39.70
13332;DHT22;6735;51.456;12.626;2023-08-21T11:29:41;31.70;40.30
13332;DHT22;6735;51.456;12.626;2023-08-21T11:32:30;31.90;39.50
13332;DHT22;6735;51.456;12.626;2023-08-21T11:34:57;32.00;39.00
13332;DHT22;6735;51.456;12.626;2023-08-21T11:37:27;32.00;39.70
13332;DHT22;6735;51.456;12.626;2023-08-21T11:39:54;32.20;39.50
13332;DHT22;6735;51.456;12.626;2023-08-21T11:42:21;32.30;39.20
13332;DHT22;6735;51.456;12.626;2023-08-21T11:44:50;32.30;39.10
13332;DHT22;6735;51.456;12.626;2023-08-21T11:47:18;32.40;38.90
13332;DHT22;6735;51.456;12.626;2023-08-21T11:49:45;32.30;39.00
13332;DHT22;6735;51.456;12.626;2023-08-21T11:52:13;32.30;39.20
13332;DHT22;6735;51.456;12.626;2023-08-21T11:54:40;32.30;39.30
13332;DHT22;6735;51.456;12.626;2023-08-21T11:57:13;32.30;39.30
13332;DHT22;6735;51.456;12.626;2023-08-21T11:59:40;32.20;38.70
13332;DHT22;6735;51.456;12.626;2023-08-21T12:02:26;32.30;39.30
13332;DHT22;6735;51.456;12.626;2023-08-21T12:04:53;32.30;38.50
13332;DHT22;6735;51.456;12.626;2023-08-21T12:07:19;32.30;39.30
13332;DHT22;6735;51.456;12.626;2023-08-21T12:09:48;32.40;39.30
13332;DHT22;6735;51.456;12.626;2023-08-21T12:12:16;32.50;39.20
13332;DHT22;6735;51.456;12.626;2023-08-21T12:14:42;32.50;39.10
13332;DHT22;6735;51.456;12.626;2023-08-21T12:17:07;32.50;39.00
13332;DHT22;6735;51.456;12.626;2023-08-21T12:19:33;32.40;39.40
13332;DHT22;6735;51.456;12.626;2023-08-21T12:21:59;32.30;39.20
13332;DHT22;6735;51.456;12.626;2023-08-21T12:24:24;32.30;39.20
13332;DHT22;6735;51.456;12.626;2023-08-21T12:26:50;32.30;39.30
13332;DHT22;6735;51.456;12.626;2023-08-21T12:29:16;32.40;39.30
13332;DHT22;6735;51.456;12.626;2023-08-21T12:31:42;32.40;39.40
13332;DHT22;6735;51.456;12.626;2023-08-21T12:34:07;32.40;39.00
13332;DHT22;6735;51.456;12.626;2023-08-21T12:36:36;32.10;39.70
13332;DHT22;6735;51.456;12.626;2023-08-21T12:39:03;32.20;39.70
13332;DHT22;6735;51.456;12.626;2023-08-21T12:41:29;32.10;39.70
13332;DHT22;6735;51.456;12.626;2023-08-21T12:43:56;32.20;39.50
13332;DHT22;6735;51.456;12.626;2023-08-21T12:46:21;32.20;39.30
13332;DHT22;6735;51.456;12.626;2023-08-21T12:48:47;32.20;39.20
13332;DHT22;6735;51.456;12.626;2023-08-21T12:51:13;32.20;39.20
13332;DHT22;6735;51.456;12.626;2023-08-21T12:53:38;32.20;39.20
13332;DHT22;6735;51.456;12.626;2023-08-21T12:56:04;32.10;39.20
13332;DHT22;6735;51.456;12.626;2023-08-21T12:58:30;32.20;39.30
13332;DHT22;6735;51.456;12.626;2023-08-21T13:00:55;32.20;39.20
13332;DHT22;6735;51.456;12.626;2023-08-21T13:03:21;32.20;39.50
13332;DHT22;6735;51.456;12.626;2023-08-21T13:05:47;32.20;39.50
13332;DHT22;6735;51.456;12.626;2023-08-21T13:08:12;32.20;39.50
13332;DHT22;6735;51.456;12.626;2023-08-21T13:10:39;32.30;39.40
13332;DHT22;6735;51.456;12.626;2023-08-21T13:13:05;32.30;39.40
13332;DHT22;6735;51.456;12.626;2023-08-21T13:15:30;32.50;39.40
13332;DHT22;6735;51.456;12.626;2023-08-21T13:17:57;32.30;39.30
13332;DHT22;6735;51.456;12.626;2023-08-21T13:20:22;32.20;39.50
13332;DHT22;6735;51.456;12.626;2023-08-21T13:22:50;32.30;39.60
13332;DHT22;6735;51.456;12.626;2023-08-21T13:25:18;32.30;39.60
13332;DHT22;6735;51.456;12.626;2023-08-21T13:27:44;32.30;39.60
13332;DHT22;6735;51.456;12.626;2023-08-21T13:30:10;32.30;39.80
13332;DHT22;6735;51.456;12.626;2023-08-21T13:32:36;32.30;39.80
13332;DHT22;6735;51.456;12.626;2023-08-21T13:35:01;32.10;40.10
13332;DHT22;6735;51.456;12.626;2023-08-21T13:37:30;32.10;40.40
13332;DHT22;6735;51.456;12.626;2023-08-21T13:39:55;32.10;40.20
13332;DHT22;6735;51.456;12.626;2023-08-21T13:42:24;32.00;40.00
13332;DHT22;6735;51.456;12.626;2023-08-21T13:44:50;31.80;40.20
13332;DHT22;6735;51.456;12.626;2023-08-21T13:47:16;31.90;39.90
13332;DHT22;6735;51.456;12.626;2023-08-21T13:49:42;31.90;40.00
13332;DHT22;6735;51.456;12.626;2023-08-21T13:52:07;31.90;39.90
13332;DHT22;6735;51.456;12.626;2023-08-21T13:54:33;31.90;39.80
13332;DHT22;6735;51.456;12.626;2023-08-21T13:56:58;31.90;40.00
13332;DHT22;6735;51.456;12.626;2023-08-21T13:59:25;31.90;40.30
13332;DHT22;6735;51.456;12.626;2023-08-21T14:01:51;31.80;40.40
13332;DHT22;6735;51.456;12.626;2023-08-21T14:04:16;31.90;40.50
13332;DHT22;6735;51.456;12.626;2023-08-21T14:06:41;32.00;40.50
13332;DHT22;6735;51.456;12.626;2023-08-21T14:09:07;31.90;40.70
13332;DHT22;6735;51.456;12.626;2023-08-21T14:11:33;31.80;40.60
13332;DHT22;6735;51.456;12.626;2023-08-21T14:13:58;31.70;40.70
13332;DHT22;6735;51.456;12.626;2023-08-21T14:16:24;31.60;40.90
13332;DHT22;6735;51.456;12.626;2023-08-21T14:18:49;31.60;41.00
13332;DHT22;6735;51.456;12.626;2023-08-21T14:21:14;31.70;41.00
13332;DHT22;6735;51.456;12.626;2023-08-21T14:23:40;31.70;41.10
13332;DHT22;6735;51.456;12.626;2023-08-21T14:26:05;31.70;41.40
13332;DHT22;6735;51.456;12.626;2023-08-21T14:28:31;31.70;41.20
13332;DHT22;6735;51.456;12.626;2023-08-21T14:30:57;31.50;41.40
13332;DHT22;6735;51.456;12.626;2023-08-21T14:33:22;31.50;41.80
13332;DHT22;6735;51.456;12.626;2023-08-21T14:35:49;31.40;41.90
13332;DHT22;6735;51.456;12.626;2023-08-21T14:38:14;31.30;42.00
13332;DHT22;6735;51.456;12.626;2023-08-21T14:40:40;31.30;42.00
13332;DHT22;6735;51.456;12.626;2023-08-21T14:43:05;31.30;42.20
13332;DHT22;6735;51.456;12.626;2023-08-21T14:45:31;31.20;42.40
13332;DHT22;6735;51.456;12.626;2023-08-21T14:47:56;31.20;42.20
13332;DHT22;6735;51.456;12.626;2023-08-21T14:50:22;31.20;42.30
13332;DHT22;6735;51.456;12.626;2023-08-21T14:52:47;31.20;42.50
13332;DHT22;6735;51.456;12.626;2023-08-21T14:55:13;31.20;42.50
13332;DHT22;6735;51.456;12.626;2023-08-21T14:57:39;31.20;42.40
13332;DHT22;6735;51.456;12.626;2023-08-21T15:00:05;31.20;42.80
13332;DHT22;6735;51.456;12.626;2023-08-21T15:02:30;31.20;42.90
13332;DHT22;6735;51.456;12.626;2023-08-21T15:04:56;31.10;43.10
13332;DHT22;6735;51.456;12.626;2023-08-21T15:07:21;31.00;43.30
13332;DHT22;6735;51.456;12.626;2023-08-21T15:09:47;30.80;43.30
13332;DHT22;6735;51.456;12.626;2023-08-21T15:12:12;30.80;43.10
13332;DHT22;6735;51.456;12.626;2023-08-21T15:14:38;30.70;43.50
13332;DHT22;6735;51.456;12.626;2023-08-21T15:17:03;30.50;43.50
13332;DHT22;6735;51.456;12.626;2023-08-21T15:19:29;30.30;43.70
13332;DHT22;6735;51.456;12.626;2023-08-21T15:21:54;30.20;44.20
13332;DHT22;6735;51.456;12.626;2023-08-21T15:24:20;30.00;44.50
13332;DHT22;6735;51.456;12.626;2023-08-21T15:26:45;29.90;44.80
13332;DHT22;6735;51.456;12.626;2023-08-21T15:29:11;29.90;44.90
13332;DHT22;6735;51.456;12.626;2023-08-21T15:31:36;29.80;45.10
13332;DHT22;6735;51.456;12.626;2023-08-21T15:34:02;29.90;45.10
13332;DHT22;6735;51.456;12.626;2023-08-21T15:36:27;29.90;45.20
13332;DHT22;6735;51.456;12.626;2023-08-21T15:38:53;29.90;45.30
13332;DHT22;6735;51.456;12.626;2023-08-21T15:41:18;29.80;45.40
13332;DHT22;6735;51.456;12.626;2023-08-21T15:43:44;29.70;45.30
13332;DHT22;6735;51.456;12.626;2023-08-21T15:46:09;29.70;45.20